Time,TemperatureF,DewpointF,PressureIn,WindDirection,WindDirectionDegrees,WindSpeedMPH,WindSpeedGustMPH,Humidity,HourlyPrecipIn,Conditions,Clouds,dailyrainin,SoftwareType,DateUTC
2015-09-02 00:04:00,63.1,61.7,30.04,SE,142,0.0,0.0,95,0.00,,CLR,0.00,VWS V15.00,2015-09-02 04:04:00,
2015-09-02 00:09:00,63.1,61.7,30.04,SE,142,0.0,0.0,95,0.00,,CLR,0.00,VWS V15.00,2015-09-02 04:09:00,
2015-09-02 00:14:00,63.1,61.7,30.04,SE,142,0.0,0.0,95,0.00,,CLR,0.00,VWS V15.00,2015-09-02 04:14:00,
2015-09-02 00:19:00,63.0,61.5,30.05,SE,142,0.0,0.0,95,0.00,,CLR,0.00,VWS V15.00,2015-09-02 04:19:00,
2015-09-02 00:24:00,63.0,61.5,30.05,SE,142,0.0,0.0,95,0.00,,CLR,0.00,VWS V15.00,2015-09-02 04:24:00,
2015-09-02 00:29:00,63.0,61.5,30.04,SE,142,0.0,0.0,95,0.00,,CLR,0.00,VWS V15.00,2015-09-02 04:29:00,
2015-09-02 00:39:00,62.9,61.5,30.04,SE,142,0.0,0.0,95,0.00,,CLR,0.00,VWS V15.00,2015-09-02 04:39:00,
2015-09-02 00:44:00,62.9,61.5,30.04,SE,142,0.0,0.0,95,0.00,,CLR,0.00,VWS V15.00,2015-09-02 04:44:00,
2015-09-02 00:49:00,62.9,61.5,30.04,SE,142,0.0,0.0,95,0.00,,CLR,0.00,VWS V15.00,2015-09-02 04:49:00,
2015-09-02 00:54:00,62.9,61.5,30.04,SE,142,0.0,0.0,95,0.00,,CLR,0.00,VWS V15.00,2015-09-02 04:54:00,
2015-09-02 00:59:00,62.9,61.5,30.04,SE,142,0.0,0.0,95,0.00,,CLR,0.00,VWS V15.00,2015-09-02 04:59:00,
2015-09-02 01:04:00,63.0,61.5,30.04,SE,142,0.0,0.0,95,0.00,,CLR,0.00,VWS V15.00,2015-09-02 05:04:00,
2015-09-02 01:09:00,62.9,61.5,30.04,SE,142,0.0,0.0,95,0.00,,CLR,0.00,VWS V15.00,2015-09-02 05:09:00,
2015-09-02 01:14:00,62.9,61.5,30.04,SE,142,0.0,0.0,95,0.00,,CLR,0.00,VWS V15.00,2015-09-02 05:14:00,
2015-09-02 01:19:00,62.8,61.3,30.04,SE,142,0.0,0.0,95,0.00,,CLR,0.00,VWS V15.00,2015-09-02 05:19:00,
2015-09-02 01:24:00,62.7,61.2,30.04,SE,142,0.0,0.0,95,0.00,,CLR,0.00,VWS V15.00,2015-09-02 05:24:00,
2015-09-02 01:29:00,62.7,61.2,30.04,SE,142,0.0,0.0,95,0.00,,CLR,0.00,VWS V15.00,2015-09-02 05:29:00,
2015-09-02 01:34:00,62.7,61.2,30.04,SE,142,0.0,0.0,95,0.00,,CLR,0.00,VWS V15.00,2015-09-02 05:34:00,
2015-09-02 01:39:00,62.6,61.2,30.04,SE,142,0.0,0.0,95,0.00,,CLR,0.00,VWS V15.00,2015-09-02 05:39:00,
2015-09-02 01:44:00,62.6,61.5,30.04,SE,142,0.0,0.0,96,0.00,,CLR,0.00,VWS V15.00,2015-09-02 05:44:00,
2015-09-02 01:49:00,62.6,61.5,30.04,SE,142,0.0,0.0,96,0.00,,CLR,0.00,VWS V15.00,2015-09-02 05:49:00,
2015-09-02 01:54:00,62.5,61.3,30.04,SE,142,0.0,0.0,96,0.00,,CLR,0.00,VWS V15.00,2015-09-02 05:54:00,
2015-09-02 01:59:00,62.5,61.3,30.03,SE,142,0.0,0.0,96,0.00,,CLR,0.00,VWS V15.00,2015-09-02 05:59:00,
2015-09-02 02:04:00,62.5,61.3,30.03,SE,142,0.0,0.0,96,0.00,,CLR,0.00,VWS V15.00,2015-09-02 06:04:00,
2015-09-02 02:09:00,62.5,61.3,30.03,SE,142,0.0,0.0,96,0.00,,CLR,0.00,VWS V15.00,2015-09-02 06:09:00,
2015-09-02 02:14:00,62.5,61.3,30.03,SE,142,0.0,0.0,96,0.00,,CLR,0.00,VWS V15.00,2015-09-02 06:14:00,
2015-09-02 02:19:00,62.4,61.2,30.03,SE,142,0.0,0.0,96,0.00,,CLR,0.00,VWS V15.00,2015-09-02 06:19:00,
2015-09-02 02:24:00,62.4,61.2,30.03,SE,142,0.0,0.0,96,0.00,,CLR,0.00,VWS V15.00,2015-09-02 06:24:00,
2015-09-02 02:29:00,62.4,61.2,30.02,SE,142,0.0,0.0,96,0.00,,CLR,0.00,VWS V15.00,2015-09-02 06:29:00,
2015-09-02 02:39:00,62.3,61.2,30.02,SE,142,0.0,0.0,96,0.00,,CLR,0.00,VWS V15.00,2015-09-02 06:39:00,
2015-09-02 02:44:00,62.3,61.2,30.02,SE,142,0.0,0.0,96,0.00,,CLR,0.00,VWS V15.00,2015-09-02 06:44:00,
2015-09-02 02:49:00,62.3,61.2,30.02,SE,142,0.0,0.0,96,0.00,,CLR,0.00,VWS V15.00,2015-09-02 06:49:00,
2015-09-02 02:54:00,62.2,61.0,30.02,SE,142,0.0,0.0,96,0.00,,CLR,0.00,VWS V15.00,2015-09-02 06:54:00,
2015-09-02 02:59:00,62.2,61.0,30.02,SE,142,0.0,0.0,96,0.00,,CLR,0.00,VWS V15.00,2015-09-02 06:59:00,
2015-09-02 03:04:00,62.2,61.0,30.02,SE,142,0.0,0.0,96,0.00,,CLR,0.00,VWS V15.00,2015-09-02 07:04:00,
2015-09-02 03:09:00,62.1,61.0,30.02,SE,142,0.0,0.0,96,0.00,,CLR,0.00,VWS V15.00,2015-09-02 07:09:00,
2015-09-02 03:14:00,62.2,61.0,30.02,SE,142,0.0,0.0,96,0.00,,CLR,0.00,VWS V15.00,2015-09-02 07:14:00,
2015-09-02 03:18:00,62.1,61.0,30.02,SE,142,0.0,0.0,96,0.00,,CLR,0.00,VWS V15.00,2015-09-02 07:18:00,
2015-09-02 03:23:00,62.1,61.0,30.02,SE,142,0.0,0.0,96,0.00,,CLR,0.00,VWS V15.00,2015-09-02 07:23:00,
2015-09-02 03:28:00,62.1,61.0,30.02,SE,142,0.0,0.0,96,0.00,,CLR,0.00,VWS V15.00,2015-09-02 07:28:00,
2015-09-02 03:33:00,62.0,60.8,30.01,SE,142,0.0,0.0,96,0.00,,CLR,0.00,VWS V15.00,2015-09-02 07:33:00,
2015-09-02 03:38:00,62.0,60.8,30.02,SE,142,0.0,0.0,96,0.00,,CLR,0.00,VWS V15.00,2015-09-02 07:38:00,
2015-09-02 03:43:00,61.9,60.8,30.01,SE,142,0.0,0.0,96,0.00,,CLR,0.00,VWS V15.00,2015-09-02 07:43:00,
2015-09-02 03:48:00,61.9,60.8,30.01,SE,142,0.0,0.0,96,0.00,,CLR,0.00,VWS V15.00,2015-09-02 07:48:00,
2015-09-02 03:53:00,61.8,60.7,30.01,SE,142,0.0,0.0,96,0.00,,CLR,0.00,VWS V15.00,2015-09-02 07:53:00,
2015-09-02 03:58:00,61.8,60.7,30.01,SE,142,0.0,0.0,96,0.00,,CLR,0.00,VWS V15.00,2015-09-02 07:58:00,
2015-09-02 04:03:00,61.8,60.7,30.01,SE,142,0.0,0.0,96,0.00,,CLR,0.00,VWS V15.00,2015-09-02 08:03:00,
2015-09-02 04:08:00,61.8,60.7,30.01,SE,142,0.0,0.0,96,0.00,,CLR,0.00,VWS V15.00,2015-09-02 08:08:00,
2015-09-02 04:13:00,61.8,60.7,30.01,SE,142,0.0,0.0,96,0.00,,CLR,0.00,VWS V15.00,2015-09-02 08:13:00,
2015-09-02 04:18:00,61.8,60.7,30.01,SE,142,0.0,0.0,96,0.00,,CLR,0.00,VWS V15.00,2015-09-02 08:18:00,
2015-09-02 04:23:00,61.7,60.5,30.01,SE,142,0.0,0.0,96,0.00,,CLR,0.00,VWS V15.00,2015-09-02 08:23:00,
2015-09-02 04:28:00,61.7,60.5,30.01,SE,142,0.0,0.0,96,0.00,,CLR,0.00,VWS V15.00,2015-09-02 08:28:00,
2015-09-02 04:33:00,61.7,60.5,30.01,SE,142,0.0,0.0,96,0.00,,CLR,0.00,VWS V15.00,2015-09-02 08:33:00,
2015-09-02 04:38:00,61.7,60.5,30.00,SE,142,0.0,0.0,96,0.00,,CLR,0.00,VWS V15.00,2015-09-02 08:38:00,
2015-09-02 04:43:00,61.6,60.5,30.01,SE,142,0.0,0.0,96,0.00,,CLR,0.00,VWS V15.00,2015-09-02 08:43:00,
2015-09-02 04:48:00,61.6,60.5,30.01,SE,142,0.0,0.0,96,0.00,,CLR,0.00,VWS V15.00,2015-09-02 08:48:00,
2015-09-02 04:53:00,61.7,60.5,30.01,SE,142,0.0,0.0,96,0.00,,CLR,0.00,VWS V15.00,2015-09-02 08:53:00,
2015-09-02 04:58:00,61.7,60.5,30.01,SE,142,0.0,0.0,96,0.00,,CLR,0.00,VWS V15.00,2015-09-02 08:58:00,
2015-09-02 05:08:00,61.6,60.5,30.01,SE,142,0.0,0.0,96,0.00,,,0.00,VWS V15.00,2015-09-02 09:08:00,
2015-09-02 05:13:00,61.7,60.5,30.01,SE,142,0.0,0.0,96,0.00,,,0.00,VWS V15.00,2015-09-02 09:13:00,
2015-09-02 05:18:00,61.6,60.7,30.01,SE,142,0.0,0.0,97,0.00,,,0.00,VWS V15.00,2015-09-02 09:18:00,
2015-09-02 05:23:00,61.7,60.8,30.01,SE,142,0.0,0.0,97,0.00,,,0.00,VWS V15.00,2015-09-02 09:23:00,
2015-09-02 05:28:00,61.8,60.9,30.01,SE,142,0.0,0.0,97,0.00,,,0.00,VWS V15.00,2015-09-02 09:28:00,
2015-09-02 05:33:00,61.8,60.9,30.01,SE,142,0.0,0.0,97,0.00,,,0.00,VWS V15.00,2015-09-02 09:33:00,
2015-09-02 05:38:00,61.8,60.9,30.01,SE,142,0.0,0.0,97,0.00,,,0.00,VWS V15.00,2015-09-02 09:38:00,
2015-09-02 05:43:00,61.9,61.0,30.01,SE,142,0.0,0.0,97,0.00,,CLR,0.00,VWS V15.00,2015-09-02 09:43:00,
2015-09-02 05:48:00,62.0,61.1,30.01,SE,142,0.0,0.0,97,0.00,,CLR,0.00,VWS V15.00,2015-09-02 09:48:00,
2015-09-02 05:53:00,62.0,61.1,30.01,SE,142,0.0,1.0,97,0.00,,CLR,0.00,VWS V15.00,2015-09-02 09:53:00,
2015-09-02 05:58:00,62.1,61.2,30.01,SE,142,0.0,1.0,97,0.00,,CLR,0.00,VWS V15.00,2015-09-02 09:58:00,
2015-09-02 06:03:00,62.1,61.2,30.01,SE,142,0.0,0.0,97,0.00,,CLR,0.00,VWS V15.00,2015-09-02 10:03:00,
2015-09-02 06:08:00,62.1,61.2,30.01,SE,142,0.0,0.0,97,0.00,,CLR,0.00,VWS V15.00,2015-09-02 10:08:00,
2015-09-02 06:13:00,62.2,61.3,30.01,SE,142,0.0,0.0,97,0.00,,CLR,0.00,VWS V15.00,2015-09-02 10:13:00,
2015-09-02 06:18:00,62.3,61.4,30.01,SSE,168,0.0,1.0,97,0.00,,CLR,0.00,VWS V15.00,2015-09-02 10:18:00,
2015-09-02 06:23:00,62.5,61.6,30.00,SSE,168,0.0,1.0,97,0.00,,,0.00,VWS V15.00,2015-09-02 10:23:00,
2015-09-02 06:28:00,62.6,61.7,30.00,SSE,168,0.0,1.0,97,0.00,,,0.00,VWS V15.00,2015-09-02 10:28:00,
2015-09-02 06:33:00,62.7,61.8,30.00,SSE,168,0.0,1.0,97,0.00,,,0.00,VWS V15.00,2015-09-02 10:33:00,
2015-09-02 06:38:00,62.9,62.0,30.00,SSE,168,0.0,1.0,97,0.00,,,0.00,VWS V15.00,2015-09-02 10:38:00,
2015-09-02 06:43:00,63.1,62.2,30.00,SSE,168,0.0,1.0,97,0.00,,,0.00,VWS V15.00,2015-09-02 10:43:00,
2015-09-02 06:48:00,63.3,62.7,30.00,South,169,0.0,1.0,98,0.00,,,0.00,VWS V15.00,2015-09-02 10:48:00,
2015-09-02 06:53:00,63.6,63.0,30.01,South,169,0.0,2.0,98,0.00,,,0.00,VWS V15.00,2015-09-02 10:53:00,
2015-09-02 06:58:00,64.0,63.4,30.01,South,169,0.0,2.0,98,0.00,,,0.00,VWS V15.00,2015-09-02 10:58:00,
2015-09-02 07:03:00,64.8,64.2,30.01,South,171,2.0,2.0,98,0.00,,,0.00,VWS V15.00,2015-09-02 11:03:00,
2015-09-02 07:08:00,65.3,64.7,30.01,SW,228,0.0,2.0,98,0.00,,,0.00,VWS V15.00,2015-09-02 11:08:00,
2015-09-02 07:13:00,66.1,65.5,30.01,SW,218,0.0,4.0,98,0.00,,,0.00,VWS V15.00,2015-09-02 11:13:00,
2015-09-02 07:18:00,66.8,66.2,30.01,WSW,242,0.0,4.0,98,0.00,,,0.00,VWS V15.00,2015-09-02 11:18:00,
2015-09-02 07:23:00,67.2,66.6,30.01,SSW,200,0.0,4.0,98,0.00,,,0.00,VWS V15.00,2015-09-02 11:23:00,
2015-09-02 07:28:00,67.5,66.9,30.01,WSW,249,0.0,6.0,98,0.00,,,0.00,VWS V15.00,2015-09-02 11:28:00,
2015-09-02 07:33:00,67.9,67.3,30.01,WSW,241,0.0,3.0,98,0.00,,,0.00,VWS V15.00,2015-09-02 11:33:00,
2015-09-02 07:38:00,68.3,67.7,30.01,WSW,242,1.0,3.0,98,0.00,,,0.00,VWS V15.00,2015-09-02 11:38:00,
2015-09-02 07:43:00,68.5,67.9,30.01,SE,126,1.0,4.0,98,0.00,,,0.00,VWS V15.00,2015-09-02 11:43:00,
2015-09-02 07:48:00,68.8,68.2,30.01,SSW,212,0.0,5.0,98,0.00,,,0.00,VWS V15.00,2015-09-02 11:48:00,
2015-09-02 07:53:00,69.0,68.4,30.01,WSW,244,2.0,6.0,98,0.00,,,0.00,VWS V15.00,2015-09-02 11:53:00,
2015-09-02 07:58:00,69.2,68.6,30.01,WSW,244,0.0,7.0,98,0.00,,,0.00,VWS V15.00,2015-09-02 11:58:00,
2015-09-02 08:03:00,69.4,68.8,30.01,South,187,4.0,8.0,98,0.00,,,0.00,VWS V15.00,2015-09-02 12:03:00,
2015-09-02 08:08:00,69.6,69.0,30.01,SW,221,1.0,8.0,98,0.00,,,0.00,VWS V15.00,2015-09-02 12:08:00,
2015-09-02 08:13:00,69.8,69.2,30.01,SSW,202,3.0,8.0,98,0.00,,,0.00,VWS V15.00,2015-09-02 12:13:00,
2015-09-02 08:18:00,70.0,69.1,30.01,SW,218,4.0,8.0,97,0.00,,,0.00,VWS V15.00,2015-09-02 12:18:00,
2015-09-02 08:23:00,70.2,69.3,30.01,SW,235,4.0,8.0,97,0.00,,,0.00,VWS V15.00,2015-09-02 12:23:00,
2015-09-02 08:28:00,70.4,69.5,30.00,SSW,204,0.0,8.0,97,0.00,,,0.00,VWS V15.00,2015-09-02 12:28:00,
2015-09-02 08:33:00,70.6,69.4,30.00,SSW,203,1.0,10.0,96,0.00,,,0.00,VWS V15.00,2015-09-02 12:33:00,
2015-09-02 08:38:00,70.9,69.7,30.01,SW,221,3.0,10.0,96,0.00,,,0.00,VWS V15.00,2015-09-02 12:38:00,
2015-09-02 08:43:00,71.1,69.6,30.00,South,179,2.0,10.0,95,0.00,,CLR,0.00,VWS V15.00,2015-09-02 12:43:00,
2015-09-02 08:48:00,71.5,70.0,30.01,SW,230,1.0,10.0,95,0.00,,CLR,0.00,VWS V15.00,2015-09-02 12:48:00,
2015-09-02 08:53:00,71.7,69.9,30.01,SW,217,1.0,11.0,94,0.00,,CLR,0.00,VWS V15.00,2015-09-02 12:53:00,
2015-09-02 08:58:00,71.9,70.1,30.01,SSW,213,1.0,11.0,94,0.00,,CLR,0.00,VWS V15.00,2015-09-02 12:58:00,
2015-09-02 09:03:00,72.1,70.3,30.01,SSW,203,7.0,9.0,94,0.00,,CLR,0.00,VWS V15.00,2015-09-02 13:03:00,
2015-09-02 09:08:00,72.4,70.3,30.01,West,264,1.0,9.0,93,0.00,,CLR,0.00,VWS V15.00,2015-09-02 13:08:00,
2015-09-02 09:13:00,72.7,70.6,30.01,SSE,155,3.0,9.0,93,0.00,,CLR,0.00,VWS V15.00,2015-09-02 13:13:00,
2015-09-02 09:18:00,72.9,70.4,30.01,West,268,4.0,9.0,92,0.00,,CLR,0.00,VWS V15.00,2015-09-02 13:18:00,
2015-09-02 09:23:00,73.1,70.6,30.01,SW,231,5.0,9.0,92,0.00,,CLR,0.00,VWS V15.00,2015-09-02 13:23:00,
2015-09-02 09:28:00,73.2,70.7,30.01,SSW,196,1.0,9.0,92,0.00,,CLR,0.00,VWS V15.00,2015-09-02 13:28:00,
2015-09-02 09:33:00,73.3,70.5,30.01,SW,221,0.0,7.0,91,0.00,,CLR,0.00,VWS V15.00,2015-09-02 13:33:00,
2015-09-02 09:38:00,73.6,70.8,30.01,West,263,3.0,10.0,91,0.00,,CLR,0.00,VWS V15.00,2015-09-02 13:38:00,
2015-09-02 09:40:00,73.7,70.9,30.01,SW,217,1.0,10.0,91,0.00,,CLR,0.00,VWS V15.00,2015-09-02 13:40:00,
2015-09-02 09:41:00,73.7,70.9,30.01,SSE,165,1.0,10.0,91,0.00,,CLR,0.00,VWS V15.00,2015-09-02 13:41:00,
2015-09-02 09:42:00,73.8,71.0,30.01,SSW,202,3.0,10.0,91,0.00,,CLR,0.00,VWS V15.00,2015-09-02 13:42:00,
2015-09-02 09:47:00,74.0,70.9,30.00,SW,230,4.0,10.0,90,0.00,,CLR,0.00,VWS V15.00,2015-09-02 13:47:00,
2015-09-02 09:52:00,74.1,70.7,30.00,SW,221,11.0,11.0,89,0.00,,CLR,0.00,VWS V15.00,2015-09-02 13:52:00,
2015-09-02 09:57:00,74.2,70.4,30.01,SW,221,6.0,11.0,88,0.00,,CLR,0.00,VWS V15.00,2015-09-02 13:57:00,
2015-09-02 10:02:00,74.2,70.4,30.00,SW,223,0.0,7.0,88,0.00,,CLR,0.00,VWS V15.00,2015-09-02 14:02:00,
2015-09-02 10:07:00,74.4,70.6,30.00,West,280,7.0,10.0,88,0.00,,CLR,0.00,VWS V15.00,2015-09-02 14:07:00,
2015-09-02 10:12:00,74.3,70.5,30.00,WSW,250,1.0,10.0,88,0.00,,CLR,0.00,VWS V15.00,2015-09-02 14:12:00,
2015-09-02 10:17:00,74.5,70.7,30.00,South,190,9.0,11.0,88,0.00,,CLR,0.00,VWS V15.00,2015-09-02 14:17:00,
2015-09-02 10:22:00,74.7,71.2,30.00,South,186,2.0,11.0,89,0.00,,CLR,0.00,VWS V15.00,2015-09-02 14:22:00,
2015-09-02 10:27:00,74.8,71.0,30.00,SSW,193,2.0,11.0,88,0.00,,CLR,0.00,VWS V15.00,2015-09-02 14:27:00,
2015-09-02 10:32:00,74.8,71.0,30.00,SSW,202,4.0,11.0,88,0.00,,CLR,0.00,VWS V15.00,2015-09-02 14:32:00,
2015-09-02 10:37:00,74.7,70.9,30.00,SW,229,6.0,11.0,88,0.00,,CLR,0.00,VWS V15.00,2015-09-02 14:37:00,
2015-09-02 10:42:00,74.9,71.4,30.00,SSW,211,5.0,11.0,89,0.00,,CLR,0.00,VWS V15.00,2015-09-02 14:42:00,
2015-09-02 10:47:00,75.1,71.3,30.00,South,186,2.0,11.0,88,0.00,,CLR,0.00,VWS V15.00,2015-09-02 14:47:00,
2015-09-02 10:52:00,75.3,71.5,30.00,ESE,103,7.0,11.0,88,0.00,,CLR,0.00,VWS V15.00,2015-09-02 14:52:00,
2015-09-02 10:57:00,75.3,71.2,30.00,West,270,2.0,12.0,87,0.00,,CLR,0.00,VWS V15.00,2015-09-02 14:57:00,
2015-09-02 11:02:00,75.1,71.3,30.00,SSE,157,6.0,10.0,88,0.00,,CLR,0.00,VWS V15.00,2015-09-02 15:02:00,
2015-09-02 11:07:00,75.1,71.3,30.00,SW,219,2.0,10.0,88,0.00,,CLR,0.00,VWS V15.00,2015-09-02 15:07:00,
2015-09-02 11:12:00,75.1,71.3,30.00,WSW,238,6.0,10.0,88,0.00,,CLR,0.00,VWS V15.00,2015-09-02 15:12:00,
2015-09-02 11:17:00,75.1,71.3,30.00,SW,236,13.0,13.0,88,0.00,,CLR,0.00,VWS V15.00,2015-09-02 15:17:00,
2015-09-02 11:22:00,75.3,71.5,29.99,South,176,1.0,13.0,88,0.00,,CLR,0.00,VWS V15.00,2015-09-02 15:22:00,
2015-09-02 11:27:00,75.5,71.7,29.99,SW,229,5.0,13.0,88,0.00,,CLR,0.00,VWS V15.00,2015-09-02 15:27:00,
2015-09-02 11:32:00,75.5,71.4,29.99,SE,142,4.0,12.0,87,0.00,,CLR,0.00,VWS V15.00,2015-09-02 15:32:00,
2015-09-02 11:37:00,75.7,71.6,29.99,South,187,3.0,12.0,87,0.00,,CLR,0.00,VWS V15.00,2015-09-02 15:37:00,